In Rescue
 
Open Full Screen Window  High Contrast Mode
Wind Gusting 00 knots
05
January 24, 2020 7:20 PM CST
Weather Information
Wind Direction
  350 °
Wind Speed
  05 kt (6 mph)
Wind Gust
  00 kt (0 mph)
Altimeter
30.04 in
Visibility
10 SM
Temperature
-04° C
25° F
Dewpoint
-05° C
23° F
Humidity
93%
1hr Rain Fall
00.00 in.
24hr Rain Fall
00.00 in.
Sky Condition
Overcast @ 3,200 ft
VFR

METAR KBBB 250120Z AUTO 35005KT 10SM OVC032 M04/M05 A3004 RMK AO2

FAA Disclaimer: The data displayed is for advisory purposes only and is not to be used for flight planning or operations.